Time;durP1;ratioP1;P1;durP2;ratioP2;P2;SDS_P1;SDS_P2;PMS_P1;PMS_P2;Temp;Humidity;BMP_temperature;BMP_pressure;BME280_temperature;BME280_humidity;BME280_pressure;Samples;Min_cycle;Max_cycle;Signal;HPM_P1;HPM_P2
2022/08/09 00:00:19;;;;;;;16.90;5.00;;;;;;;14.20;53.34;99893.20;105976;1276;24066;-88
2022/08/09 00:03:24;;;;;;;16.90;4.10;;;;;;;14.10;53.26;99895.20;105766;1276;25361;-87
2022/08/09 00:06:01;;;;;;;15.20;4.30;;;;;;;14.09;53.54;99892.77;105846;1276;22544;-87
2022/08/09 00:08:35;;;;;;;12.40;3.80;;;;;;;14.05;53.58;99891.96;105775;1276;24419;-88
2022/08/09 00:11:15;;;;;;;13.30;4.30;;;;;;;14.07;53.80;99893.30;105895;1276;25338;-87
2022/08/09 00:13:49;;;;;;;14.30;4.10;;;;;;;13.99;53.76;99893.15;105845;1277;25249;-87
2022/08/09 00:16:38;;;;;;;12.80;4.50;;;;;;;13.95;53.94;99895.93;105773;1277;24261;-89
2022/08/09 00:19:19;;;;;;;13.00;4.80;;;;;;;13.90;54.11;99894.52;105947;1276;25470;-87
2022/08/09 00:21:48;;;;;;;19.00;5.00;;;;;;;13.91;54.13;99893.90;105883;1279;25460;-88
2022/08/09 00:24:20;;;;;;;17.50;5.10;;;;;;;13.87;54.18;99895.31;105801;1276;24368;-87
2022/08/09 00:26:54;;;;;;;13.10;5.20;;;;;;;13.85;54.17;99895.23;105817;1276;24143;-87
2022/08/09 00:29:31;;;;;;;14.40;4.50;;;;;;;13.81;54.34;99891.61;105751;1276;22556;-88
2022/08/09 00:32:03;;;;;;;14.20;4.30;;;;;;;13.81;54.36;99890.17;105797;1276;24395;-88
2022/08/09 00:34:38;;;;;;;19.20;4.80;;;;;;;13.85;54.39;99893.34;105958;1276;25591;-87
2022/08/09 00:37:13;;;;;;;11.60;4.00;;;;;;;13.87;54.61;99892.63;105963;1276;25299;-87
2022/08/09 00:39:56;;;;;;;11.10;4.80;;;;;;;13.90;54.54;99893.27;105769;1276;22566;-88
2022/08/09 00:42:32;;;;;;;17.10;4.50;;;;;;;13.94;54.67;99898.55;105820;1276;22623;-88
2022/08/09 00:45:16;;;;;;;13.50;4.70;;;;;;;13.93;54.72;99899.34;105486;1279;22537;-88
2022/08/09 00:48:03;;;;;;;15.90;5.00;;;;;;;13.94;54.80;99903.23;105778;1276;24238;-87
2022/08/09 00:50:44;;;;;;;12.60;5.00;;;;;;;13.89;54.88;99901.05;105815;1277;25617;-88
2022/08/09 00:53:33;;;;;;;13.90;5.40;;;;;;;13.88;55.07;99908.48;105858;1276;22628;-89
2022/08/09 00:56:31;;;;;;;13.90;4.50;;;;;;;13.82;55.13;99905.54;105878;1277;25235;-85
2022/08/09 00:59:06;;;;;;;15.80;4.50;;;;;;;13.80;55.37;99909.39;105924;1276;22556;-90
2022/08/09 01:01:46;;;;;;;10.60;4.10;;;;;;;13.78;55.50;99904.88;105989;1276;22707;-87
2022/08/09 01:04:53;;;;;;;11.40;4.70;;;;;;;13.82;55.46;99909.27;105989;1277;22645;-88
2022/08/09 01:08:40;;;;;;;11.20;4.00;;;;;;;13.79;55.51;99904.41;102935;1276;4130900;-88
2022/08/09 01:12:24;;;;;;;14.60;4.60;;;;;;;13.75;55.50;99898.63;106072;1276;25234;-88
2022/08/09 01:15:31;;;;;;;19.00;5.20;;;;;;;13.76;55.68;99894.99;105953;1276;23917;-87
2022/08/09 01:18:40;;;;;;;17.30;5.20;;;;;;;13.72;55.77;99895.30;105790;1276;25250;-86
2022/08/09 01:22:25;;;;;;;14.30;4.80;;;;;;;13.65;55.79;99896.48;105885;1276;22742;-88
2022/08/09 01:25:54;;;;;;;;;;;;;;;;;;;;;
2022/08/09 01:29:05;;;;;;;11.80;4.10;;;;;;;13.58;55.97;99903.67;105998;1276;24213;-88
2022/08/09 01:31:41;;;;;;;13.10;4.60;;;;;;;13.55;55.87;99908.54;105966;1277;22557;-88
2022/08/09 01:34:27;;;;;;;14.30;4.50;;;;;;;13.52;56.04;99910.46;106020;1276;22532;-87
2022/08/09 01:37:03;;;;;;;14.40;4.70;;;;;;;13.50;56.19;99908.54;105938;1277;22537;-91
2022/08/09 01:39:34;;;;;;;14.90;4.90;;;;;;;13.43;56.35;99909.70;105924;1276;22531;-91
2022/08/09 01:42:06;;;;;;;12.30;4.60;;;;;;;13.42;56.32;99914.97;105905;1277;25511;-90
2022/08/09 01:44:44;;;;;;;15.40;4.30;;;;;;;13.43;56.43;99911.33;105928;1276;22521;-88
2022/08/09 01:47:16;;;;;;;12.70;5.00;;;;;;;13.40;56.45;99913.16;105853;1276;25539;-88
2022/08/09 01:49:48;;;;;;;18.80;4.80;;;;;;;13.37;56.41;99915.48;105873;1276;24308;-87
2022/08/09 01:52:19;;;;;;;12.30;4.00;;;;;;;13.34;56.41;99920.16;105819;1276;24257;-86
2022/08/09 01:54:54;;;;;;;15.60;4.00;;;;;;;13.34;56.60;99920.70;106044;1276;24312;-87
2022/08/09 01:57:48;;;;;;;16.20;4.80;;;;;;;13.32;56.69;99921.55;105789;1277;24286;-87
2022/08/09 02:00:25;;;;;;;15.50;4.40;;;;;;;13.37;56.86;99919.83;106016;1276;24311;-88
2022/08/09 02:03:05;;;;;;;12.40;4.30;;;;;;;13.40;56.85;99922.23;105769;1276;22817;-91
2022/08/09 02:05:43;;;;;;;14.20;4.80;;;;;;;13.44;56.89;99924.52;106064;1276;22725;-91
2022/08/09 02:08:19;;;;;;;13.70;5.00;;;;;;;13.38;57.08;99921.67;105995;1276;22647;-86
2022/08/09 02:10:54;;;;;;;13.70;5.20;;;;;;;13.35;57.05;99922.63;105825;1276;22537;-88
2022/08/09 02:13:36;;;;;;;12.50;4.90;;;;;;;13.33;57.24;99921.86;105879;1276;24673;-88
2022/08/09 02:16:09;;;;;;;12.00;4.20;;;;;;;13.32;57.26;99921.24;105670;1277;22603;-87
2022/08/09 02:18:46;;;;;;;18.60;5.00;;;;;;;13.32;57.31;99921.03;106040;1276;22599;-86
2022/08/09 02:21:23;;;;;;;9.80;4.60;;;;;;;13.29;57.18;99922.30;105794;1277;22563;-87
2022/08/09 02:24:03;;;;;;;15.60;5.10;;;;;;;13.28;57.29;99916.48;105845;1277;23262;-87
2022/08/09 02:26:41;;;;;;;12.80;5.40;;;;;;;13.29;57.47;99920.04;105850;1276;22553;-88
2022/08/09 02:29:25;;;;;;;15.10;4.70;;;;;;;13.29;57.42;99920.92;105698;1278;22627;-89
2022/08/09 02:32:05;;;;;;;9.40;4.40;;;;;;;13.23;57.46;99915.18;106019;1276;24419;-88
2022/08/09 02:34:36;;;;;;;9.20;4.60;;;;;;;13.20;57.52;99913.27;105831;1276;25348;-86
2022/08/09 02:37:13;;;;;;;11.90;5.20;;;;;;;13.19;57.55;99911.73;105876;1276;24313;-89
2022/08/09 02:39:45;;;;;;;10.40;4.70;;;;;;;13.17;57.53;99906.33;105817;1277;23180;-88
2022/08/09 02:42:24;;;;;;;11.50;4.70;;;;;;;13.16;57.57;99904.92;105811;1276;25596;-87
2022/08/09 02:45:16;;;;;;;8.80;4.00;;;;;;;13.18;57.63;99903.39;105755;1276;23069;-88
2022/08/09 02:47:50;;;;;;;11.50;3.80;;;;;;;13.20;57.65;99905.92;105885;1276;25455;-87
2022/08/09 02:50:30;;;;;;;10.50;4.00;;;;;;;13.15;57.71;99905.52;105908;1277;22702;-89
2022/08/09 02:53:07;;;;;;;11.00;4.40;;;;;;;13.03;57.91;99906.73;105783;1276;23003;-90
2022/08/09 02:55:42;;;;;;;11.20;4.00;;;;;;;12.91;58.12;99912.95;105725;1277;22575;-88
2022/08/09 02:58:16;;;;;;;9.40;3.80;;;;;;;12.82;58.35;99918.38;105817;1276;24223;-88
2022/08/09 03:00:46;;;;;;;13.90;4.60;;;;;;;12.77;58.42;99919.80;105836;1276;22532;-89
2022/08/09 03:03:27;;;;;;;10.20;3.60;;;;;;;12.79;58.46;99916.81;105809;1277;26160;-87
2022/08/09 03:06:05;;;;;;;10.40;3.90;;;;;;;12.85;58.44;99914.24;105810;1277;24423;-85
2022/08/09 03:08:41;;;;;;;8.90;3.20;;;;;;;12.94;58.57;99915.60;105750;1276;24216;-87
2022/08/09 03:11:17;;;;;;;10.20;3.20;;;;;;;13.01;58.57;99921.73;105810;1276;24786;-86
2022/08/09 03:13:56;;;;;;;12.30;3.70;;;;;;;13.05;58.48;99921.12;105777;1277;22621;-90
2022/08/09 03:16:31;;;;;;;11.60;3.80;;;;;;;12.98;58.27;99926.23;105838;1277;24409;-88
2022/08/09 03:19:07;;;;;;;9.40;3.30;;;;;;;12.93;58.55;99927.98;105900;1276;23906;-88
2022/08/09 03:21:45;;;;;;;10.10;4.10;;;;;;;12.93;58.57;99928.90;105956;1276;24823;-87
2022/08/09 03:24:15;;;;;;;12.30;3.40;;;;;;;12.95;58.59;99928.17;105966;1278;24331;-87
2022/08/09 03:26:47;;;;;;;9.70;3.30;;;;;;;12.99;58.68;99927.22;105891;1276;22721;-89
2022/08/09 03:29:24;;;;;;;9.20;4.00;;;;;;;13.02;58.84;99927.92;105902;1277;25240;-88
2022/08/09 03:31:59;;;;;;;9.50;3.20;;;;;;;12.94;58.60;99930.58;105940;1277;22538;-87
2022/08/09 03:34:32;;;;;;;8.70;3.20;;;;;;;12.90;58.71;99928.52;105733;1276;25497;-86
2022/08/09 03:37:02;;;;;;;8.10;2.70;;;;;;;12.97;58.86;99926.64;106012;1277;23082;-86
2022/08/09 03:39:44;;;;;;;8.80;3.10;;;;;;;13.02;58.89;99927.93;105897;1278;22556;-90
2022/08/09 03:42:23;;;;;;;8.50;3.20;;;;;;;13.00;58.88;99922.65;105858;1277;22544;-89
2022/08/09 03:45:05;;;;;;;10.20;3.40;;;;;;;13.03;58.86;99925.19;105937;1276;24253;-86
2022/08/09 03:47:51;;;;;;;10.30;3.60;;;;;;;13.03;58.86;99927.11;105690;1276;25516;-86
2022/08/09 03:50:26;;;;;;;9.40;3.60;;;;;;;12.96;58.83;99922.43;105639;1280;25340;-86
2022/08/09 03:52:57;;;;;;;7.20;3.50;;;;;;;12.84;58.88;99922.00;105656;1277;22538;-86
2022/08/09 03:55:25;;;;;;;8.40;3.60;;;;;;;12.76;58.96;99927.16;105994;1276;22553;-91
2022/08/09 03:57:59;;;;;;;7.60;3.40;;;;;;;12.65;59.05;99929.30;105864;1277;22560;-87
2022/08/09 04:00:29;;;;;;;7.30;3.10;;;;;;;12.65;59.28;99931.61;105844;1276;24216;-88
2022/08/09 04:03:05;;;;;;;10.40;3.50;;;;;;;12.65;59.13;99934.33;105858;1279;25436;-88
2022/08/09 04:05:35;;;;;;;9.10;3.50;;;;;;;12.73;59.39;99929.86;105952;1279;22538;-88
2022/08/09 04:08:07;;;;;;;10.00;3.60;;;;;;;12.85;59.46;99928.87;105948;1277;22475;-88
2022/08/09 04:10:34;;;;;;;12.40;4.50;;;;;;;12.99;59.62;99924.71;105925;1277;25896;-87
2022/08/09 04:13:10;;;;;;;9.70;3.80;;;;;;;13.12;59.56;99924.37;105999;1276;25345;-87
2022/08/09 04:15:38;;;;;;;10.60;4.20;;;;;;;13.20;59.53;99921.33;105986;1276;22691;-87
2022/08/09 04:18:08;;;;;;;15.60;4.50;;;;;;;13.26;59.81;99921.81;105806;1280;22585;-85
2022/08/09 04:20:48;;;;;;;18.10;4.70;;;;;;;13.34;59.75;99921.09;105976;1277;24402;-88
2022/08/09 04:23:19;;;;;;;15.60;4.40;;;;;;;13.41;59.68;99924.16;105840;1278;25356;-89
2022/08/09 04:25:46;;;;;;;14.50;3.50;;;;;;;13.50;59.70;99926.92;105959;1279;25507;-86
2022/08/09 04:28:20;;;;;;;10.70;3.70;;;;;;;13.59;59.68;99929.69;105839;1276;25246;-91
2022/08/09 04:30:54;;;;;;;15.60;3.80;;;;;;;13.72;59.70;99926.30;106009;1276;22693;-87
2022/08/09 04:33:26;;;;;;;12.70;3.70;;;;;;;13.83;59.64;99923.33;105843;1279;24420;-87
2022/08/09 04:36:03;;;;;;;11.60;3.50;;;;;;;13.94;59.70;99927.54;105894;1279;24369;-87
2022/08/09 04:38:47;;;;;;;11.80;3.70;;;;;;;14.03;59.75;99926.38;105735;1279;24310;-86
2022/08/09 04:41:46;;;;;;;11.10;3.80;;;;;;;14.11;59.70;99932.20;105877;1277;26589;-87
2022/08/09 04:44:35;;;;;;;10.60;3.50;;;;;;;14.17;59.90;99932.31;105795;1276;22537;-89
2022/08/09 04:47:30;;;;;;;9.10;3.70;;;;;;;14.26;59.84;99932.17;105898;1279;24243;-87
2022/08/09 04:50:13;;;;;;;12.20;4.30;;;;;;;14.40;59.89;99930.43;105912;1280;25414;-86
2022/08/09 04:52:55;;;;;;;9.10;3.60;;;;;;;14.63;59.80;99932.20;105913;1277;22640;-89
2022/08/09 04:55:52;;;;;;;12.40;3.80;;;;;;;14.86;60.02;99933.15;105829;1279;22571;-87
2022/08/09 04:58:29;;;;;;;11.40;3.80;;;;;;;15.13;59.86;99937.48;105843;1279;22579;-87
2022/08/09 05:01:09;;;;;;;10.80;3.50;;;;;;;15.34;60.00;99929.52;106002;1276;24616;-88
2022/08/09 05:04:22;;;;;;;9.90;3.40;;;;;;;15.52;59.87;99933.73;105862;1279;24343;-87
2022/08/09 05:07:19;;;;;;;12.30;3.90;;;;;;;15.67;59.90;99936.66;106039;1276;22551;-87
2022/08/09 05:13:21;;;;;;;12.40;4.10;;;;;;;15.87;60.13;99942.62;105794;1279;24259;-88
2022/08/09 05:16:41;;;;;;;15.90;4.10;;;;;;;15.95;59.91;99937.48;105938;1278;22558;-88
2022/08/09 05:19:56;;;;;;;14.80;3.70;;;;;;;16.06;59.79;99941.63;105964;1277;25552;-87
2022/08/09 05:23:19;;;;;;;;;;;;;;;;;;;;;
2022/08/09 05:26:20;;;;;;;15.30;4.00;;;;;;;16.38;59.75;99946.78;105830;1277;22569;-91
2022/08/09 05:29:55;;;;;;;13.20;3.90;;;;;;;16.52;59.66;99948.13;105839;1278;25396;-87
2022/08/09 05:33:48;;;;;;;;;;;;;;;;;;;;;
2022/08/09 05:37:34;;;;;;;15.60;4.50;;;;;;;16.69;59.65;99957.17;106034;1276;25310;-88
2022/08/09 05:40:49;;;;;;;13.30;4.10;;;;;;;16.78;59.67;99960.77;105925;1277;25244;-88
2022/08/09 05:44:17;;;;;;;10.40;3.80;;;;;;;16.85;59.61;99959.23;106014;1277;24922;-88
2022/08/09 05:47:03;;;;;;;14.40;3.90;;;;;;;16.93;59.61;99962.71;105894;1279;22538;-88
2022/08/09 05:50:29;;;;;;;;;;;;;;;;;;;;;
2022/08/09 05:53:45;;;;;;;12.90;3.30;;;;;;;17.16;59.90;99962.52;105388;1284;24222;-87
2022/08/09 05:56:31;;;;;;;13.70;3.50;;;;;;;17.33;59.76;99962.04;105402;1284;25535;-89
2022/08/09 05:59:16;;;;;;;19.10;3.70;;;;;;;17.46;59.76;99960.17;105204;1284;22594;-87
2022/08/09 06:01:55;;;;;;;18.10;4.10;;;;;;;17.58;59.66;99958.73;105274;1285;23965;-87
2022/08/09 06:04:32;;;;;;;21.20;4.00;;;;;;;17.75;59.69;99959.28;105139;1288;22783;-87
2022/08/09 06:07:19;;;;;;;21.30;4.40;;;;;;;17.92;59.70;99959.23;105250;1284;24304;-88
2022/08/09 06:10:19;;;;;;;15.00;4.30;;;;;;;18.06;59.47;99959.75;105214;1287;22719;-86
2022/08/09 06:13:29;;;;;;;19.50;4.30;;;;;;;18.24;59.51;99960.29;105311;1284;23913;-90
2022/08/09 06:16:14;;;;;;;21.40;4.10;;;;;;;18.46;59.66;99962.34;105320;1285;26658;-87
2022/08/09 06:19:03;;;;;;;18.70;3.80;;;;;;;18.62;59.39;99961.41;105250;1285;22579;-89
2022/08/09 06:21:49;;;;;;;15.50;4.20;;;;;;;18.72;59.33;99961.63;105470;1284;22574;-92
2022/08/09 06:24:23;;;;;;;14.40;4.20;;;;;;;18.84;59.10;99960.33;105159;1286;25599;-88
2022/08/09 06:27:01;;;;;;;11.30;4.20;;;;;;;18.93;58.76;99958.09;105253;1285;23448;-89
2022/08/09 06:29:30;;;;;;;9.90;3.80;;;;;;;19.06;58.35;99957.40;105050;1282;22551;-87
2022/08/09 06:32:04;;;;;;;12.40;4.00;;;;;;;19.20;58.19;99959.85;105935;1276;25242;-87
2022/08/09 06:34:32;;;;;;;10.40;3.70;;;;;;;19.33;58.05;99962.56;105808;1277;22660;-89
2022/08/09 06:37:05;;;;;;;13.00;4.40;;;;;;;19.40;58.20;99966.21;106010;1276;22685;-89
2022/08/09 06:39:36;;;;;;;15.00;4.00;;;;;;;19.47;57.89;99967.97;105896;1278;22682;-87
2022/08/09 06:42:06;;;;;;;13.40;4.10;;;;;;;19.53;57.80;99963.08;105796;1280;25319;-87
2022/08/09 06:44:36;;;;;;;14.80;4.20;;;;;;;19.54;57.49;99967.62;105870;1277;23059;-88
2022/08/09 06:47:11;;;;;;;11.00;3.90;;;;;;;19.54;57.63;99971.25;105851;1277;25557;-87
2022/08/09 06:49:44;;;;;;;16.20;3.90;;;;;;;19.61;57.65;99967.39;105948;1278;22587;-89
2022/08/09 06:52:17;;;;;;;13.30;4.00;;;;;;;19.77;57.69;99975.25;105929;1276;22537;-92
2022/08/09 06:54:49;;;;;;;14.80;4.90;;;;;;;19.95;57.62;99974.06;105857;1280;23920;-90
2022/08/09 06:57:17;;;;;;;14.40;4.60;;;;;;;20.09;57.64;99973.26;105754;1280;24328;-89
2022/08/09 06:59:47;;;;;;;20.40;4.90;;;;;;;20.20;57.32;99976.06;105865;1278;25252;-88
2022/08/09 07:02:24;;;;;;;18.00;5.10;;;;;;;20.22;57.44;99976.27;105823;1277;22574;-90
2022/08/09 07:04:56;;;;;;;19.70;5.90;;;;;;;20.37;57.43;99977.23;105935;1277;22545;-89
2022/08/09 07:07:29;;;;;;;17.70;5.50;;;;;;;20.55;57.29;99982.15;105928;1278;23066;-88
2022/08/09 07:10:03;;;;;;;15.70;4.90;;;;;;;20.64;57.10;99985.38;105868;1278;24297;-87
2022/08/09 07:12:33;;;;;;;16.70;5.30;;;;;;;20.67;56.68;99986.90;105891;1280;22545;-88
2022/08/09 07:15:09;;;;;;;17.20;4.90;;;;;;;20.76;56.86;99987.76;106098;1276;24273;-90
2022/08/09 07:17:38;;;;;;;17.70;4.50;;;;;;;20.97;57.06;99989.80;106024;1276;22565;-88
2022/08/09 07:20:09;;;;;;;19.90;4.40;;;;;;;21.18;56.88;99986.20;106018;1276;25292;-87
2022/08/09 07:22:44;;;;;;;9.10;4.00;;;;;;;21.35;56.60;99988.38;105802;1278;25337;-90
2022/08/09 07:25:19;;;;;;;9.50;4.20;;;;;;;21.43;56.54;99989.91;105782;1279;25495;-90
2022/08/09 07:27:49;;;;;;;10.00;4.00;;;;;;;21.50;56.18;99990.38;105892;1278;25276;-88
2022/08/09 07:30:23;;;;;;;10.80;4.20;;;;;;;21.61;56.38;99992.05;106005;1277;22669;-88
2022/08/09 07:32:53;;;;;;;11.00;4.00;;;;;;;21.73;56.29;99991.46;106014;1278;24454;-89
2022/08/09 07:35:21;;;;;;;13.00;3.80;;;;;;;22.00;56.44;99993.17;105915;1278;22768;-89
2022/08/09 07:37:53;;;;;;;9.40;3.70;;;;;;;22.27;55.81;99993.27;105892;1280;22538;-93
2022/08/09 07:40:31;;;;;;;11.90;3.90;;;;;;;22.21;56.03;99995.04;105907;1278;26553;-88
2022/08/09 07:43:09;;;;;;;15.10;3.30;;;;;;;22.39;55.86;99994.85;106051;1280;25705;-86
2022/08/09 07:45:44;;;;;;;9.30;3.30;;;;;;;22.66;55.79;99996.86;106052;1278;24067;-91
2022/08/09 07:48:17;;;;;;;11.10;3.10;;;;;;;22.84;55.67;99995.66;105860;1278;24374;-91
2022/08/09 07:50:47;;;;;;;9.00;2.80;;;;;;;23.13;55.53;100003.27;105984;1281;22872;-88
2022/08/09 07:53:15;;;;;;;10.10;2.70;;;;;;;23.18;54.77;100000.80;105788;1279;25448;-88
2022/08/09 07:55:46;;;;;;;8.50;3.10;;;;;;;23.02;55.11;100001.15;105966;1280;22693;-91
2022/08/09 07:58:24;;;;;;;8.30;2.70;;;;;;;23.17;55.51;100003.74;105958;1278;22715;-88
2022/08/09 08:00:53;;;;;;;6.50;2.50;;;;;;;23.37;54.86;100003.27;106092;1276;26433;-86
2022/08/09 08:03:23;;;;;;;6.60;2.20;;;;;;;23.46;54.83;100001.92;106079;1281;26773;-88
2022/08/09 08:05:53;;;;;;;7.00;2.10;;;;;;;23.45;54.57;100000.90;105873;1278;22558;-87
2022/08/09 08:08:23;;;;;;;7.40;2.30;;;;;;;23.50;54.81;99998.20;106020;1277;25599;-88
2022/08/09 08:11:01;;;;;;;8.30;2.40;;;;;;;23.70;54.58;99998.50;106351;1278;22689;-91
2022/08/09 08:13:39;;;;;;;8.00;2.60;;;;;;;23.89;54.24;100000.38;107160;1278;22546;-89
2022/08/09 08:16:16;;;;;;;7.50;2.30;;;;;;;24.02;54.11;99999.09;106876;1277;22555;-90
2022/08/09 08:18:57;;;;;;;10.10;2.60;;;;;;;24.14;54.17;100003.05;106563;1281;22503;-90
2022/08/09 08:21:29;;;;;;;7.40;2.60;;;;;;;24.32;54.09;100005.29;105948;1278;24266;-88
2022/08/09 08:24:02;;;;;;;9.20;2.20;;;;;;;24.35;53.74;100005.70;105988;1277;22569;-90
2022/08/09 08:26:34;;;;;;;8.40;2.40;;;;;;;24.48;53.67;100007.11;105908;1278;24213;-89
2022/08/09 08:29:13;;;;;;;8.90;2.80;;;;;;;24.68;53.74;100008.23;105928;1278;22608;-90
2022/08/09 08:31:56;;;;;;;10.30;2.70;;;;;;;24.76;53.24;100012.42;106378;1277;22596;-88
2022/08/09 08:34:32;;;;;;;8.50;2.80;;;;;;;24.92;53.19;100010.52;106867;1278;25462;-89
2022/08/09 08:37:05;;;;;;;8.80;3.00;;;;;;;25.00;52.78;100010.50;107655;1277;22577;-89
2022/08/09 08:39:45;;;;;;;7.40;2.70;;;;;;;25.10;52.81;100010.80;105902;1278;24260;-90
2022/08/09 08:42:33;;;;;;;10.80;2.80;;;;;;;25.35;52.90;100014.17;106011;1278;22617;-90
2022/08/09 08:45:10;;;;;;;9.60;2.90;;;;;;;25.44;52.63;100009.47;105977;1278;23625;-88
2022/08/09 08:47:42;;;;;;;8.60;2.80;;;;;;;25.28;52.02;100011.94;105970;1278;23047;-89
2022/08/09 08:50:20;;;;;;;8.60;2.80;;;;;;;25.31;52.59;100012.71;106508;1277;24031;-91
2022/08/09 08:52:53;;;;;;;7.20;2.40;;;;;;;25.56;52.34;100013.02;106197;1277;22554;-89
2022/08/09 08:55:21;;;;;;;7.90;2.80;;;;;;;25.66;51.70;100010.18;106492;1278;22721;-89
2022/08/09 08:57:58;;;;;;;9.30;2.70;;;;;;;25.65;51.43;100007.90;105973;1278;22543;-91
2022/08/09 09:01:13;;;;;;;8.80;2.80;;;;;;;25.67;51.40;100008.71;106100;1278;25345;-87
2022/08/09 09:04:07;;;;;;;9.10;2.40;;;;;;;25.67;51.13;100007.30;106219;1277;22598;-92
2022/08/09 09:06:56;;;;;;;6.80;2.20;;;;;;;25.77;51.31;100012.45;107913;1277;23909;-92
2022/08/09 09:10:01;;;;;;;8.00;2.00;;;;;;;26.06;51.83;100008.39;106051;1278;25798;-91
2022/08/09 09:12:52;;;;;;;9.20;2.00;;;;;;;26.41;51.02;100009.91;106230;1278;22557;-90
2022/08/09 09:15:20;;;;;;;5.40;1.50;;;;;;;26.37;50.69;100012.81;106188;1277;25523;-89
2022/08/09 09:17:51;;;;;;;7.20;1.70;;;;;;;26.28;50.23;100013.02;106236;1277;25461;-90
2022/08/09 09:20:43;;;;;;;;;;;;;;;;;;;;;
2022/08/09 09:24:20;;;;;;;5.80;1.60;;;;;;;26.22;50.23;100009.15;106392;1277;22553;-92
2022/08/09 09:27:23;;;;;;;8.00;1.80;;;;;;;26.19;50.31;100009.94;106062;1284;22745;-89
2022/08/09 09:31:36;;;;;;;6.40;1.70;;;;;;;26.27;50.38;100011.24;105308;1284;23039;-90
2022/08/09 09:34:52;;;;;;;7.10;1.70;;;;;;;26.47;49.70;100013.24;104676;1290;25391;-90
2022/08/09 09:38:10;;;;;;;;;;;;;;;;;;;;;
2022/08/09 09:41:14;;;;;;;6.80;1.40;;;;;;;26.35;49.45;100011.02;104719;1290;22597;-91
2022/08/09 09:44:19;;;;;;;4.50;1.40;;;;;;;26.29;48.79;100016.73;104884;1290;24721;-92
2022/08/09 09:47:59;;;;;;;8.30;1.70;;;;;;;26.20;48.95;100017.86;105270;1290;22583;-92
2022/08/09 09:51:47;;;;;;;6.60;1.30;;;;;;;26.38;48.85;100014.77;105179;1289;25679;-91
2022/08/09 09:54:37;;;;;;;6.30;1.20;;;;;;;26.56;48.53;100014.88;105090;1290;24284;-88
2022/08/09 09:57:25;;;;;;;5.20;1.30;;;;;;;26.54;47.87;100015.40;104974;1289;25532;-87
2022/08/09 10:00:20;;;;;;;4.80;1.20;;;;;;;26.54;48.15;100011.09;105187;1291;24350;-91
2022/08/09 10:02:50;;;;;;;7.40;1.40;;;;;;;26.68;47.90;100008.71;105052;1284;22871;-89
2022/08/09 10:05:30;;;;;;;13.60;2.10;;;;;;;26.81;47.89;100007.73;105975;1284;22614;-90
2022/08/09 10:08:06;;;;;;;11.00;1.70;;;;;;;26.89;48.43;100007.65;105978;1285;23934;-89
2022/08/09 10:10:46;;;;;;;7.90;1.20;;;;;;;27.19;48.16;100005.85;105880;1277;24212;-94
2022/08/09 10:13:19;;;;;;;8.10;1.40;;;;;;;27.33;47.40;100006.88;106763;1278;22498;-92
2022/08/09 10:15:52;;;;;;;7.80;1.20;;;;;;;27.10;47.35;100006.64;106743;1277;22547;-90
2022/08/09 10:18:23;;;;;;;6.50;1.30;;;;;;;26.61;46.93;100004.04;107030;1277;22486;-88
2022/08/09 10:20:53;;;;;;;6.00;1.50;;;;;;;26.24;47.00;100007.55;106966;1277;25761;-92
2022/08/09 10:23:26;;;;;;;6.30;1.70;;;;;;;26.28;47.44;100000.59;105960;1277;25541;-90
2022/08/09 10:26:00;;;;;;;8.70;1.30;;;;;;;26.55;47.44;100001.08;106576;1279;22615;-90
2022/08/09 10:28:41;;;;;;;7.80;1.50;;;;;;;26.72;46.87;99998.08;106323;1277;22784;-91
2022/08/09 10:31:34;;;;;;;6.70;1.30;;;;;;;26.71;46.36;99993.68;106677;1277;24214;-90
2022/08/09 10:34:18;;;;;;;9.90;1.90;;;;;;;26.68;46.59;99997.11;107067;1277;22568;-93
2022/08/09 10:36:49;;;;;;;6.20;1.60;;;;;;;26.93;46.80;99999.84;107176;1276;22554;-89
2022/08/09 10:39:34;;;;;;;12.10;6.70;;;;;;;27.02;46.08;99997.14;106976;1277;23636;-91
2022/08/09 10:42:05;;;;;;;6.10;2.10;;;;;;;27.13;46.58;99994.41;106859;1277;25344;-91
2022/08/09 10:44:36;;;;;;;7.10;1.40;;;;;;;27.35;46.06;99994.25;106893;1278;22601;-92
2022/08/09 10:47:19;;;;;;;10.00;1.40;;;;;;;27.29;45.95;99991.02;106106;1276;25603;-91
2022/08/09 10:50:04;;;;;;;7.30;1.30;;;;;;;27.13;46.12;99986.07;106841;1278;24214;-90
2022/08/09 10:53:06;;;;;;;6.50;1.30;;;;;;;27.30;46.22;99982.48;106719;1276;22742;-90
2022/08/09 10:55:51;;;;;;;3.10;1.20;;;;;;;27.36;45.46;99983.00;106897;1276;22559;-89
2022/08/09 10:58:47;;;;;;;8.00;1.30;;;;;;;27.36;45.88;99980.95;106337;1276;24248;-90
2022/08/09 11:01:55;;;;;;;5.20;1.10;;;;;;;27.32;45.09;99983.63;105923;1277;24202;-90
2022/08/09 11:04:34;;;;;;;4.00;1.30;;;;;;;26.96;45.13;99979.77;106311;1276;24087;-91
2022/08/09 11:07:09;;;;;;;8.50;1.50;;;;;;;27.13;46.00;99980.27;106138;1276;22758;-90
2022/08/09 11:09:44;;;;;;;7.20;1.30;;;;;;;27.47;45.52;99976.21;106519;1276;22483;-92
2022/08/09 11:12:43;;;;;;;11.80;1.60;;;;;;;27.69;45.45;99973.73;107147;1276;23056;-92
2022/08/09 11:15:24;;;;;;;5.60;1.20;;;;;;;27.74;44.93;99974.45;107189;1278;22702;-89
2022/08/09 11:17:57;;;;;;;6.30;1.20;;;;;;;27.57;44.16;99971.62;106702;1277;22619;-91
2022/08/09 11:20:54;;;;;;;7.50;1.40;;;;;;;27.46;44.73;99969.48;106368;1277;24967;-89
2022/08/09 11:23:49;;;;;;;8.00;1.60;;;;;;;27.51;44.72;99969.58;106300;1277;24138;-90
2022/08/09 11:26:43;;;;;;;12.50;1.70;;;;;;;27.75;44.64;99966.25;106948;1277;23910;-91
2022/08/09 11:29:56;;;;;;;9.60;1.40;;;;;;;27.81;43.74;99966.85;106705;1276;22503;-92
2022/08/09 11:33:05;;;;;;;5.10;1.30;;;;;;;27.69;44.11;99966.48;106610;1277;25493;-91
2022/08/09 11:35:52;;;;;;;5.10;1.00;;;;;;;27.83;44.64;99962.95;106470;1278;24272;-90
2022/08/09 11:38:32;;;;;;;5.10;1.10;;;;;;;28.04;44.48;99958.01;105846;1281;25313;-90
2022/08/09 11:41:15;;;;;;;7.40;1.10;;;;;;;28.21;44.06;99958.90;105938;1278;22563;-92
2022/08/09 11:43:53;;;;;;;3.40;1.00;;;;;;;28.33;43.92;99965.13;106531;1277;22601;-89
2022/08/09 11:46:24;;;;;;;6.00;1.10;;;;;;;28.39;43.87;99963.34;106454;1276;22544;-92
2022/08/09 11:48:58;;;;;;;8.10;1.30;;;;;;;28.46;44.01;99958.55;106711;1278;22617;-90
2022/08/09 11:52:05;;;;;;;2.70;1.00;;;;;;;28.57;43.39;99955.31;105878;1278;22484;-90
2022/08/09 11:54:32;;;;;;;6.50;1.30;;;;;;;28.24;42.65;99951.76;105847;1278;23906;-90
2022/08/09 11:57:37;;;;;;;8.30;1.40;;;;;;;27.96;43.21;99953.98;106832;1277;22618;-93
2022/08/09 12:00:09;;;;;;;7.30;1.50;;;;;;;27.89;42.68;99958.55;106113;1278;22544;-90
2022/08/09 12:02:49;;;;;;;4.30;1.20;;;;;;;27.88;43.34;99951.74;106158;1279;22806;-90
2022/08/09 12:05:19;;;;;;;8.90;1.60;;;;;;;27.83;42.61;99949.50;106316;1278;24154;-88
2022/08/09 12:07:46;;;;;;;12.60;1.90;;;;;;;27.43;42.34;99954.90;106571;1277;22560;-90
2022/08/09 12:10:14;;;;;;;6.70;1.30;;;;;;;27.29;42.79;99953.69;106034;1277;22717;-90
2022/08/09 12:12:51;;;;;;;9.40;1.20;;;;;;;27.01;42.63;99956.34;106203;1277;22557;-88
2022/08/09 12:15:30;;;;;;;5.80;1.20;;;;;;;26.84;42.99;99957.83;106134;1276;22587;-89
2022/08/09 12:18:03;;;;;;;8.40;1.50;;;;;;;26.57;42.58;99954.48;106155;1277;22546;-89
2022/08/09 12:20:33;;;;;;;8.20;1.30;;;;;;;26.70;42.80;99946.98;106317;1277;24192;-89
2022/08/09 12:23:04;;;;;;;7.80;1.30;;;;;;;27.00;42.77;99945.03;106459;1276;24695;-90
2022/08/09 12:25:34;;;;;;;3.40;1.10;;;;;;;27.20;42.39;99946.88;106227;1277;24385;-89
2022/08/09 12:28:28;;;;;;;8.70;1.30;;;;;;;27.18;42.08;99944.73;106793;1278;22539;-89
2022/08/09 12:31:02;;;;;;;8.10;1.10;;;;;;;27.19;41.88;99947.39;106778;1277;22612;-91
2022/08/09 12:33:35;;;;;;;4.40;1.20;;;;;;;26.91;41.56;99945.93;106451;1277;24225;-91
2022/08/09 12:36:05;;;;;;;3.20;1.20;;;;;;;26.60;41.75;99945.34;105915;1277;23163;-89
2022/08/09 12:38:43;;;;;;;7.00;1.20;;;;;;;26.79;42.13;99944.20;106107;1278;24271;-88
2022/08/09 12:41:22;;;;;;;7.00;1.40;;;;;;;27.17;42.23;99945.44;106321;1276;22583;-92
2022/08/09 12:43:57;;;;;;;8.90;1.60;;;;;;;27.26;41.37;99939.66;106275;1276;22775;-93